Saint Paul, Nebraska
Current Conditions -  °F | °C
As of 5:53 AM on Thursday 29 Jan 2015 (Local Time) from KGRI Reporting Station
Overcast Overcast  
Wind Chill: 27°   Ceiling: 2900
Heat Index: 37°   Visibility: 10mi
Dew Point: 28°   Wind: 17mph
Humidity: 70%   Direction: 340°NNW
Pressure: 30.29"   Gusts: 28mph
Location:  41.21°N, 98.46°W
Report Text: KGRI 291153Z AUTO 34015G24KT 10SM OVC029 03/M02 A3029 RMK AO2 PK WND 35032/1127 SLP266 T00281022 10050 20028 53023
Loading
Personal Weather Stations






























Interactive Weather Map New forecast layout! Learn more

10-Day Weather Forecast

Advertisements
Track Severe Weather on mobile